Time,TemperatureF,DewpointF,PressureIn,WindDirection,WindDirectionDegrees,WindSpeedMPH,WindSpeedGustMPH,Humidity,HourlyPrecipIn,Conditions,Clouds,dailyrainin,SoftwareType,DateUTC
2013-04-27 00:03:00,50.0,39.1,30.09,SE,135,0.0,-999.0,66,-99.99,,,0.00,Acu-Link.com,2013-04-27 04:03:00,
2013-04-27 00:18:00,49.3,39.2,30.09,ESE,112,2.2,-999.0,68,-99.99,,,0.00,Acu-Link.com,2013-04-27 04:18:00,
2013-04-27 00:33:00,48.6,39.3,30.09,SSE,157,2.2,-999.0,70,-99.99,,,0.00,Acu-Link.com,2013-04-27 04:33:00,
2013-04-27 00:48:00,48.0,39.4,30.09,ESE,112,2.7,-999.0,72,-99.99,,,0.00,Acu-Link.com,2013-04-27 04:48:00,
2013-04-27 01:03:00,47.5,38.9,30.09,ESE,112,0.0,-999.0,72,-99.99,,,0.00,Acu-Link.com,2013-04-27 05:03:00,
2013-04-27 01:19:00,47.3,39.4,30.09,ENE,67,1.1,-999.0,74,-99.99,,,0.00,Acu-Link.com,2013-04-27 05:19:00,
2013-04-27 01:34:00,47.1,39.6,30.09,East,90,2.2,-999.0,75,-99.99,,,0.00,Acu-Link.com,2013-04-27 05:34:00,
2013-04-27 01:49:00,46.0,39.2,30.08,NNE,22,1.7,-999.0,77,-99.99,,,0.00,Acu-Link.com,2013-04-27 05:49:00,
2013-04-27 02:05:00,46.2,39.1,30.08,ESE,112,2.2,-999.0,76,-99.99,,,0.00,Acu-Link.com,2013-04-27 06:05:00,
2013-04-27 02:20:00,46.4,38.9,30.08,ESE,112,1.7,-999.0,75,-99.99,,,0.00,Acu-Link.com,2013-04-27 06:20:00,
2013-04-27 02:35:00,45.0,38.9,30.07,NNE,22,0.0,-999.0,79,-99.99,,,0.00,Acu-Link.com,2013-04-27 06:35:00,
2013-04-27 02:51:00,45.3,38.9,30.06,ESE,112,2.7,-999.0,78,-99.99,,,0.00,Acu-Link.com,2013-04-27 06:51:00,
2013-04-27 03:06:00,44.8,38.4,30.06,ESE,112,2.7,-999.0,78,-99.99,,,0.00,Acu-Link.com,2013-04-27 07:06:00,
2013-04-27 03:21:00,44.1,38.0,30.06,SSE,157,0.0,-999.0,79,-99.99,,,0.00,Acu-Link.com,2013-04-27 07:21:00,
2013-04-27 03:36:00,44.1,38.3,30.06,South,180,0.0,-999.0,80,-99.99,,,0.00,Acu-Link.com,2013-04-27 07:36:00,
2013-04-27 03:51:00,43.3,37.6,30.06,SE,135,0.0,-999.0,80,-99.99,,,0.00,Acu-Link.com,2013-04-27 07:51:00,
2013-04-27 04:07:00,43.2,38.1,30.06,SSE,157,2.7,-999.0,82,-99.99,,,0.00,Acu-Link.com,2013-04-27 08:07:00,
2013-04-27 04:22:00,44.2,38.7,30.05,SSE,157,2.2,-999.0,81,-99.99,,,0.00,Acu-Link.com,2013-04-27 08:22:00,
2013-04-27 04:37:00,43.3,38.2,30.06,SSE,157,1.7,-999.0,82,-99.99,,,0.00,Acu-Link.com,2013-04-27 08:37:00,
2013-04-27 04:52:00,42.8,38.0,30.06,ESE,112,0.0,-999.0,83,-99.99,,,0.00,Acu-Link.com,2013-04-27 08:52:00,
2013-04-27 05:07:00,42.3,37.8,30.05,SSE,157,0.0,-999.0,84,-99.99,,,0.00,Acu-Link.com,2013-04-27 09:07:00,
2013-04-27 05:23:00,41.2,37.0,30.05,South,180,0.0,-999.0,85,-99.99,,,0.00,Acu-Link.com,2013-04-27 09:23:00,
2013-04-27 05:38:00,40.8,36.9,30.05,SE,135,0.0,-999.0,86,-99.99,,,0.00,Acu-Link.com,2013-04-27 09:38:00,
2013-04-27 05:53:00,40.8,37.2,30.04,NE,45,0.0,-999.0,87,-99.99,,,0.00,Acu-Link.com,2013-04-27 09:53:00,
2013-04-27 06:09:00,41.7,37.8,30.04,NE,45,0.0,-999.0,86,-99.99,,,0.00,Acu-Link.com,2013-04-27 10:09:00,
2013-04-27 06:24:00,41.5,37.3,30.04,SSE,157,0.0,-999.0,85,-99.99,,,0.00,Acu-Link.com,2013-04-27 10:24:00,
2013-04-27 06:39:00,42.4,37.9,30.04,South,180,2.2,-999.0,84,-99.99,,,0.00,Acu-Link.com,2013-04-27 10:39:00,
2013-04-27 06:54:00,42.4,37.9,30.03,SSE,157,2.7,-999.0,84,-99.99,,,0.00,Acu-Link.com,2013-04-27 10:54:00,
2013-04-27 07:09:00,42.3,37.8,30.04,East,90,0.0,-999.0,84,-99.99,,,0.00,Acu-Link.com,2013-04-27 11:09:00,
2013-04-27 07:24:00,42.4,37.6,30.03,ESE,112,0.0,-999.0,83,-99.99,,,0.00,Acu-Link.com,2013-04-27 11:24:00,
2013-04-27 07:39:00,42.4,37.6,30.03,SE,135,0.0,-999.0,83,-99.99,,,0.00,Acu-Link.com,2013-04-27 11:39:00,
2013-04-27 07:55:00,43.5,38.4,30.03,NE,45,0.0,-999.0,82,-99.99,,,0.00,Acu-Link.com,2013-04-27 11:55:00,
2013-04-27 08:10:00,44.8,39.3,30.03,NE,45,2.2,-999.0,81,-99.99,,,0.00,Acu-Link.com,2013-04-27 12:10:00,
2013-04-27 08:25:00,46.4,40.2,30.04,NNE,22,1.1,-999.0,79,-99.99,,,0.00,Acu-Link.com,2013-04-27 12:25:00,
2013-04-27 08:41:00,49.5,40.5,30.03,NE,45,2.7,-999.0,71,-99.99,,,0.00,Acu-Link.com,2013-04-27 12:41:00,
2013-04-27 08:56:00,52.0,41.8,30.03,East,90,2.7,-999.0,68,-99.99,,,0.00,Acu-Link.com,2013-04-27 12:56:00,
2013-04-27 09:11:00,52.7,41.3,30.02,ESE,112,2.7,-999.0,65,-99.99,,,0.00,Acu-Link.com,2013-04-27 13:11:00,
2013-04-27 09:27:00,54.9,42.5,30.02,SE,135,3.7,-999.0,63,-99.99,,,0.00,Acu-Link.com,2013-04-27 13:27:00,
2013-04-27 09:42:00,54.1,42.2,30.02,ESE,112,4.7,-999.0,64,-99.99,,,0.00,Acu-Link.com,2013-04-27 13:42:00,
2013-04-27 09:57:00,55.9,41.8,30.02,ESE,112,6.3,-999.0,59,-99.99,,,0.00,Acu-Link.com,2013-04-27 13:57:00,
2013-04-27 10:12:00,57.9,43.2,30.01,SE,135,6.3,-999.0,58,-99.99,,,0.00,Acu-Link.com,2013-04-27 14:12:00,
2013-04-27 10:27:00,59.0,43.3,30.00,SE,135,5.3,-999.0,56,-99.99,,,0.00,Acu-Link.com,2013-04-27 14:27:00,
2013-04-27 10:42:00,60.1,43.4,29.99,NE,45,7.3,-999.0,54,-99.99,,,0.00,Acu-Link.com,2013-04-27 14:42:00,
2013-04-27 10:57:00,61.3,42.5,29.98,SE,135,5.8,-999.0,50,-99.99,,,0.00,Acu-Link.com,2013-04-27 14:57:00,
2013-04-27 11:12:00,61.5,41.6,29.98,ESE,112,6.8,-999.0,48,-99.99,,,0.00,Acu-Link.com,2013-04-27 15:12:00,
2013-04-27 11:27:00,61.2,40.8,29.98,ESE,112,6.3,-999.0,47,-99.99,,,0.00,Acu-Link.com,2013-04-27 15:27:00,
2013-04-27 11:42:00,62.1,41.1,29.98,SSE,157,6.8,-999.0,46,-99.99,,,0.00,Acu-Link.com,2013-04-27 15:42:00,
2013-04-27 11:57:00,62.6,41.0,29.99,SSE,157,9.4,-999.0,45,-99.99,,,0.00,Acu-Link.com,2013-04-27 15:57:00,
2013-04-27 12:12:00,62.1,42.7,29.99,ENE,67,7.8,-999.0,49,-99.99,,,0.00,Acu-Link.com,2013-04-27 16:12:00,
2013-04-27 12:28:00,63.1,43.1,29.98,SSE,157,13.5,-999.0,48,-99.99,,,0.00,Acu-Link.com,2013-04-27 16:28:00,
2013-04-27 12:43:00,63.7,43.6,29.98,SE,135,11.9,-999.0,48,-99.99,,,0.00,Acu-Link.com,2013-04-27 16:43:00,
2013-04-27 12:58:00,63.9,43.3,29.97,ESE,112,9.4,-999.0,47,-99.99,,,0.00,Acu-Link.com,2013-04-27 16:58:00,
2013-04-27 13:13:00,63.7,44.2,29.96,SSE,157,10.9,-999.0,49,-99.99,,,0.00,Acu-Link.com,2013-04-27 17:13:00,
2013-04-27 13:28:00,65.1,44.9,29.95,South,180,12.5,-999.0,48,-99.99,,,0.00,Acu-Link.com,2013-04-27 17:28:00,
2013-04-27 13:43:00,64.0,43.9,29.95,SSE,157,10.4,-999.0,48,-99.99,,,0.00,Acu-Link.com,2013-04-27 17:43:00,
2013-04-27 13:58:00,64.0,42.8,29.94,ESE,112,13.5,-999.0,46,-99.99,,,0.00,Acu-Link.com,2013-04-27 17:58:00,
2013-04-27 14:13:00,63.9,43.8,29.93,SSE,157,13.5,-999.0,48,-99.99,,,0.00,Acu-Link.com,2013-04-27 18:13:00,
2013-04-27 14:28:00,63.3,44.3,29.93,SSE,157,7.8,-999.0,50,-99.99,,,0.00,Acu-Link.com,2013-04-27 18:28:00,
2013-04-27 14:43:00,63.1,45.2,29.93,ESE,112,15.0,-999.0,52,-99.99,,,0.00,Acu-Link.com,2013-04-27 18:43:00,
2013-04-27 14:58:00,63.3,45.4,29.92,SSE,157,10.4,-999.0,52,-99.99,,,0.00,Acu-Link.com,2013-04-27 18:58:00,
2013-04-27 15:13:00,62.4,46.0,29.92,SSE,157,11.4,-999.0,55,-99.99,,,0.00,Acu-Link.com,2013-04-27 19:13:00,
2013-04-27 15:28:00,61.3,46.4,29.92,SSE,157,13.0,-999.0,58,-99.99,,,0.00,Acu-Link.com,2013-04-27 19:28:00,
2013-04-27 15:43:00,61.0,46.6,29.91,South,180,13.5,-999.0,59,-99.99,,,0.00,Acu-Link.com,2013-04-27 19:43:00,
2013-04-27 15:59:00,59.7,48.3,29.91,SSE,157,8.9,-999.0,66,-99.99,,,0.00,Acu-Link.com,2013-04-27 19:59:00,
2013-04-27 16:14:00,59.2,49.4,29.90,SSE,157,12.5,-999.0,70,-99.99,,,0.00,Acu-Link.com,2013-04-27 20:14:00,
2013-04-27 16:29:00,58.6,50.7,29.90,South,180,10.4,-999.0,75,-99.99,,,0.00,Acu-Link.com,2013-04-27 20:29:00,
2013-04-27 16:44:00,59.0,51.8,29.89,SSE,157,10.4,-999.0,77,-99.99,,,0.00,Acu-Link.com,2013-04-27 20:44:00,
2013-04-27 16:59:00,59.5,51.6,29.88,ESE,112,11.9,-999.0,75,-99.99,,,0.00,Acu-Link.com,2013-04-27 20:59:00,
2013-04-27 17:14:00,59.0,52.1,29.87,SE,135,8.9,-999.0,78,-99.99,,,0.00,Acu-Link.com,2013-04-27 21:14:00,
2013-04-27 17:29:00,59.2,52.3,29.87,South,180,7.3,-999.0,78,-99.99,,,0.00,Acu-Link.com,2013-04-27 21:29:00,
2013-04-27 17:44:00,59.2,52.0,29.87,SSE,157,8.9,-999.0,77,-99.99,,,0.00,Acu-Link.com,2013-04-27 21:44:00,
2013-04-27 17:59:00,59.0,51.8,29.87,ESE,112,6.3,-999.0,77,-99.99,,,0.00,Acu-Link.com,2013-04-27 21:59:00,
2013-04-27 18:14:00,59.0,51.8,29.86,SE,135,6.8,-999.0,77,-99.99,,,0.00,Acu-Link.com,2013-04-27 22:14:00,
2013-04-27 18:29:00,59.0,51.8,29.87,ESE,112,5.8,-999.0,77,-99.99,,,0.00,Acu-Link.com,2013-04-27 22:29:00,
2013-04-27 18:44:00,59.4,52.2,29.86,SE,135,8.9,-999.0,77,-99.99,,,0.00,Acu-Link.com,2013-04-27 22:44:00,
2013-04-27 19:00:00,59.2,52.3,29.85,ESE,112,11.4,-999.0,78,-99.99,,,0.00,Acu-Link.com,2013-04-27 23:00:00,
2013-04-27 19:15:00,58.8,52.3,29.84,SE,135,13.5,-999.0,79,-99.99,,,0.00,Acu-Link.com,2013-04-27 23:15:00,
2013-04-27 19:30:00,58.6,52.1,29.84,SSE,157,6.8,-999.0,79,-99.99,,,0.00,Acu-Link.com,2013-04-27 23:30:00,
2013-04-27 19:45:00,58.6,52.4,29.83,ESE,112,6.8,-999.0,80,-99.99,,,0.00,Acu-Link.com,2013-04-27 23:45:00,
2013-04-27 20:00:00,58.3,52.2,29.83,SE,135,8.3,-999.0,80,-99.99,,,0.00,Acu-Link.com,2013-04-28 00:00:00,
2013-04-27 20:15:00,57.9,52.1,29.82,SSE,157,5.8,-999.0,81,-99.99,,,0.00,Acu-Link.com,2013-04-28 00:15:00,
2013-04-27 20:31:00,56.7,52.6,29.81,ESE,112,6.8,-999.0,86,-99.99,,,0.01,Acu-Link.com,2013-04-28 00:31:00,
2013-04-27 20:46:00,55.4,52.5,29.81,ESE,112,6.8,-999.0,90,-99.99,,,0.01,Acu-Link.com,2013-04-28 00:46:00,
2013-04-27 21:01:00,55.2,52.6,29.81,ESE,112,6.3,-999.0,91,-99.99,,,0.01,Acu-Link.com,2013-04-28 01:01:00,
2013-04-27 21:16:00,55.0,52.7,29.81,SE,135,4.2,-999.0,92,-99.99,,,0.01,Acu-Link.com,2013-04-28 01:16:00,
2013-04-27 21:31:00,54.9,52.9,29.81,ESE,112,5.3,-999.0,93,-99.99,,,0.02,Acu-Link.com,2013-04-28 01:31:00,
2013-04-27 21:47:00,54.3,52.6,29.80,ESE,112,4.2,-999.0,94,-99.99,,,0.04,Acu-Link.com,2013-04-28 01:47:00,
2013-04-27 22:02:00,54.3,52.6,29.80,SE,135,8.9,-999.0,94,-99.99,,,0.04,Acu-Link.com,2013-04-28 02:02:00,
2013-04-27 22:17:00,53.8,53.0,29.80,SE,135,5.3,-999.0,97,-99.99,,,0.07,Acu-Link.com,2013-04-28 02:17:00,
2013-04-27 22:32:00,53.6,53.0,29.79,ESE,112,3.2,-999.0,98,-99.99,,,0.11,Acu-Link.com,2013-04-28 02:32:00,
2013-04-27 22:47:00,53.4,53.1,29.79,East,90,4.2,-999.0,99,-99.99,,,0.11,Acu-Link.com,2013-04-28 02:47:00,
2013-04-27 23:03:00,53.4,52.8,29.78,ESE,112,9.9,-999.0,98,-99.99,,,0.11,Acu-Link.com,2013-04-28 03:03:00,
2013-04-27 23:18:00,53.8,52.7,29.78,ESE,112,6.3,-999.0,96,-99.99,,,0.11,Acu-Link.com,2013-04-28 03:18:00,
2013-04-27 23:33:00,53.8,52.7,29.77,ESE,112,6.3,-999.0,96,-99.99,,,0.11,Acu-Link.com,2013-04-28 03:33:00,
2013-04-27 23:48:00,53.8,52.7,29.77,SE,135,4.2,-999.0,96,-99.99,,,0.11,Acu-Link.com,2013-04-28 03:48:00,